createdAt,value
2023-04-08T00:02:13.899Z,9.91
2023-04-08T00:04:43.959Z,9.92
2023-04-08T00:07:14.377Z,9.89
2023-04-08T00:09:43.268Z,9.86
2023-04-08T00:12:12.369Z,9.83
2023-04-08T00:14:41.975Z,9.82
2023-04-08T00:17:10.618Z,9.82
2023-04-08T00:19:39.258Z,9.88
2023-04-08T00:22:10.087Z,9.93
2023-04-08T00:24:40.843Z,9.93
2023-04-08T00:27:13.811Z,9.94
2023-04-08T00:29:43.013Z,9.95
2023-04-08T00:32:12.106Z,9.95
2023-04-08T00:34:40.495Z,9.95
2023-04-08T00:37:09.313Z,9.95
2023-04-08T00:39:38.096Z,9.93
2023-04-08T00:42:06.965Z,9.90
2023-04-08T00:44:35.649Z,9.88
2023-04-08T00:47:04.665Z,9.88
2023-04-08T00:49:33.231Z,9.87
2023-04-08T00:52:02.020Z,9.91
2023-04-08T00:54:32.070Z,9.97
2023-04-08T00:57:01.564Z,9.96
2023-04-08T00:59:30.035Z,9.96
2023-04-08T01:02:23.643Z,9.92
2023-04-08T01:05:07.854Z,9.79
2023-04-08T01:07:38.183Z,9.73
2023-04-08T01:10:14.244Z,9.69
2023-04-08T01:12:45.112Z,9.62
2023-04-08T01:15:13.464Z,9.58
2023-04-08T01:17:42.434Z,9.58
2023-04-08T01:20:11.354Z,9.66
2023-04-08T01:23:02.167Z,9.73
2023-04-08T01:25:32.631Z,9.78
2023-04-08T01:28:02.300Z,9.79
2023-04-08T01:30:31.605Z,9.83
2023-04-08T01:33:00.065Z,9.81
2023-04-08T01:35:28.848Z,9.77
2023-04-08T01:37:59.780Z,9.77
2023-04-08T01:40:28.307Z,9.76
2023-04-08T01:42:57.615Z,9.73
2023-04-08T01:45:25.993Z,9.77
2023-04-08T01:47:54.693Z,9.84
2023-04-08T01:50:23.984Z,9.87
2023-04-08T01:52:55.541Z,9.87
2023-04-08T01:55:23.921Z,9.86
2023-04-08T01:57:53.029Z,9.86
2023-04-08T02:00:27.893Z,9.85
2023-04-08T02:02:57.264Z,9.83
2023-04-08T02:05:25.736Z,9.78
2023-04-08T02:07:54.237Z,9.75
2023-04-08T02:10:23.359Z,9.76
2023-04-08T02:12:52.012Z,9.79
2023-04-08T02:15:20.698Z,9.82
2023-04-08T02:18:01.122Z,9.84
2023-04-08T02:20:41.524Z,9.85
2023-04-08T02:23:20.141Z,9.82
2023-04-08T02:25:48.830Z,9.77
2023-04-08T02:28:18.754Z,9.72
2023-04-08T02:30:49.542Z,9.67
2023-04-08T02:33:22.292Z,9.72
2023-04-08T02:35:55.045Z,9.79
2023-04-08T02:38:30.160Z,9.79
2023-04-08T02:40:59.185Z,9.80
2023-04-08T02:43:32.892Z,9.82
2023-04-08T02:46:10.641Z,9.75
2023-04-08T02:48:40.320Z,9.79
2023-04-08T02:51:08.789Z,9.79
2023-04-08T02:53:39.628Z,9.75
2023-04-08T02:56:11.890Z,9.76
2023-04-08T02:58:40.583Z,9.79
2023-04-08T03:01:09.239Z,9.78
2023-04-08T03:03:40.065Z,9.76
2023-04-08T03:06:08.696Z,9.73
2023-04-08T03:08:37.186Z,9.73
2023-04-08T03:11:06.481Z,9.75
2023-04-08T03:13:35.890Z,9.73
2023-04-08T03:16:04.575Z,9.75
2023-04-08T03:18:33.983Z,9.72
2023-04-08T03:21:03.678Z,9.66
2023-04-08T03:23:34.020Z,9.64
2023-04-08T03:26:02.294Z,9.59
2023-04-08T03:28:30.853Z,9.55
2023-04-08T03:31:01.115Z,9.49
2023-04-08T03:33:31.127Z,9.50
2023-04-08T03:35:59.523Z,9.54
2023-04-08T03:38:28.197Z,9.54
2023-04-08T03:40:56.681Z,9.51
2023-04-08T03:43:27.949Z,9.52
2023-04-08T03:45:56.978Z,9.51
2023-04-08T03:48:25.406Z,9.51
2023-04-08T03:50:54.200Z,9.56
2023-04-08T03:53:24.126Z,9.57
2023-04-08T03:55:53.314Z,9.60
2023-04-08T03:58:21.797Z,9.61
2023-04-08T04:00:50.793Z,9.60
2023-04-08T04:03:20.094Z,9.61
2023-04-08T04:05:54.009Z,9.58
2023-04-08T04:08:22.798Z,9.62
2023-04-08T04:10:51.897Z,9.65
2023-04-08T04:13:20.689Z,9.65
2023-04-08T04:15:49.513Z,9.61
2023-04-08T04:18:19.343Z,9.60
2023-04-08T04:20:47.779Z,9.58
2023-04-08T04:23:16.670Z,9.63
2023-04-08T04:25:45.573Z,9.69
2023-04-08T04:28:17.728Z,9.70
2023-04-08T04:30:48.581Z,9.69
2023-04-08T04:33:17.362Z,9.67
2023-04-08T04:35:48.322Z,9.62
2023-04-08T04:38:16.683Z,9.58
2023-04-08T04:40:48.032Z,9.56
2023-04-08T04:43:17.552Z,9.55
2023-04-08T04:45:47.577Z,9.51
2023-04-08T04:48:16.775Z,9.46
2023-04-08T04:50:45.961Z,9.44
2023-04-08T04:53:19.051Z,9.52
2023-04-08T04:55:49.074Z,9.59
2023-04-08T04:58:18.399Z,9.58
2023-04-08T05:00:47.169Z,9.60
2023-04-08T05:03:16.952Z,9.66
2023-04-08T05:05:53.190Z,9.74
2023-04-08T05:08:22.939Z,9.83
2023-04-08T05:10:51.759Z,9.91
2023-04-08T05:13:28.690Z,9.95
2023-04-08T05:16:02.142Z,9.92
2023-04-08T05:18:31.238Z,10.00
2023-04-08T05:21:05.261Z,10.08
2023-04-08T05:23:35.380Z,10.17
2023-04-08T05:26:03.797Z,10.23
2023-04-08T05:28:43.504Z,10.27
2023-04-08T05:31:12.240Z,10.31
2023-04-08T05:33:41.091Z,10.35
2023-04-08T05:36:11.454Z,10.45
2023-04-08T05:38:40.815Z,10.56
2023-04-08T05:41:10.962Z,10.63
2023-04-08T05:43:39.332Z,10.69
2023-04-08T05:46:08.424Z,10.76
2023-04-08T05:48:37.318Z,10.79
2023-04-08T05:51:07.029Z,10.88
2023-04-08T05:53:37.252Z,10.98
2023-04-08T05:56:05.832Z,11.03
2023-04-08T05:58:35.540Z,11.05
2023-04-08T06:01:04.149Z,11.02
2023-04-08T06:03:33.738Z,11.00
2023-04-08T06:06:02.838Z,11.05
2023-04-08T06:08:31.316Z,11.07
2023-04-08T06:11:04.415Z,11.01
2023-04-08T06:13:38.324Z,10.99
2023-04-08T06:16:14.207Z,10.94
2023-04-08T06:18:47.855Z,10.99
2023-04-08T06:21:17.843Z,11.05
2023-04-08T06:23:46.175Z,11.08
2023-04-08T06:26:14.967Z,11.02
2023-04-08T06:28:43.449Z,10.99
2023-04-08T06:31:14.496Z,11.07
2023-04-08T06:33:43.699Z,11.21
2023-04-08T06:36:13.614Z,11.32
2023-04-08T06:38:42.417Z,11.35
2023-04-08T06:41:11.197Z,11.43
2023-04-08T06:43:39.595Z,11.49
2023-04-08T06:46:08.009Z,11.60
2023-04-08T06:48:38.016Z,11.75
2023-04-08T06:51:08.138Z,11.83
2023-04-08T06:53:37.405Z,11.84
2023-04-08T06:56:05.791Z,11.80
2023-04-08T06:58:36.210Z,11.78
2023-04-08T07:01:05.367Z,11.86
2023-04-08T07:03:34.420Z,11.90
2023-04-08T07:06:04.631Z,11.93
2023-04-08T07:08:33.118Z,12.03
2023-04-08T07:11:05.928Z,12.15
2023-04-08T07:13:34.486Z,12.23
2023-04-08T07:16:02.875Z,12.25
2023-04-08T07:18:34.112Z,12.28
2023-04-08T07:21:02.704Z,12.22
2023-04-08T07:23:33.039Z,12.17
2023-04-08T07:26:07.245Z,12.27
2023-04-08T07:28:35.829Z,12.41
2023-04-08T07:31:11.460Z,12.47
2023-04-08T07:33:39.962Z,12.54
2023-04-08T07:36:12.134Z,12.60
2023-04-08T07:38:41.232Z,12.80
2023-04-08T07:41:12.169Z,12.99
2023-04-08T07:43:41.167Z,13.04
2023-04-08T07:46:10.033Z,13.06
2023-04-08T07:48:38.979Z,13.05
2023-04-08T07:51:11.073Z,13.08
2023-04-08T07:53:43.391Z,13.17
2023-04-08T07:56:13.111Z,13.26
2023-04-08T07:58:42.127Z,13.32
2023-04-08T08:01:22.201Z,13.38
2023-04-08T08:03:53.281Z,13.47
2023-04-08T08:06:22.489Z,13.66
2023-04-08T08:08:53.228Z,13.87
2023-04-08T08:11:22.835Z,14.08
2023-04-08T08:13:53.883Z,14.26
2023-04-08T08:16:28.967Z,14.39
2023-04-08T08:18:58.366Z,14.47
2023-04-08T08:21:33.766Z,14.67
2023-04-08T08:24:02.154Z,14.80
2023-04-08T08:26:31.549Z,14.81
2023-04-08T08:29:02.494Z,14.83
2023-04-08T08:31:31.539Z,14.96
2023-04-08T08:34:00.172Z,15.10
2023-04-08T08:36:29.246Z,15.23
2023-04-08T08:38:57.580Z,15.35
2023-04-08T08:41:25.926Z,15.44
2023-04-08T08:43:54.629Z,15.46
2023-04-08T08:46:23.006Z,15.42
2023-04-08T08:48:51.789Z,15.45
2023-04-08T08:51:20.270Z,15.48
2023-04-08T08:53:51.168Z,15.48
2023-04-08T08:56:20.316Z,15.47
2023-04-08T08:58:49.403Z,15.52
2023-04-08T09:01:50.529Z,15.56
2023-04-08T09:04:22.743Z,15.59
2023-04-08T09:07:11.241Z,15.63
2023-04-08T09:09:52.263Z,15.67
2023-04-08T09:12:21.056Z,15.69
2023-04-08T09:14:50.753Z,15.62
2023-04-08T09:17:39.821Z,15.53
2023-04-08T09:20:15.416Z,15.39
2023-04-08T09:23:00.439Z,15.39
2023-04-08T09:25:32.244Z,15.50
2023-04-08T09:28:03.122Z,15.67
2023-04-08T09:30:32.675Z,15.85
2023-04-08T09:33:07.649Z,16.05
2023-04-08T09:35:36.823Z,16.32
2023-04-08T09:38:05.573Z,16.56
2023-04-08T09:40:36.850Z,16.74
2023-04-08T09:43:06.251Z,16.85
2023-04-08T09:45:34.722Z,16.83
2023-04-08T09:48:07.409Z,16.84
2023-04-08T09:50:39.354Z,16.91
2023-04-08T09:53:20.968Z,17.08
2023-04-08T09:55:52.115Z,17.18
2023-04-08T09:58:27.745Z,17.28
2023-04-08T10:00:58.609Z,17.38
2023-04-08T10:03:33.185Z,17.48
2023-04-08T10:06:06.715Z,17.55
2023-04-08T10:08:35.510Z,17.62
2023-04-08T10:11:04.058Z,17.64
2023-04-08T10:13:35.644Z,17.59
2023-04-08T10:16:26.425Z,17.57
2023-04-08T10:18:58.378Z,17.53
2023-04-08T10:21:35.605Z,17.48
2023-04-08T10:24:07.397Z,17.48
2023-04-08T10:26:37.494Z,17.58
2023-04-08T10:29:18.898Z,17.65
2023-04-08T10:31:48.534Z,17.61
2023-04-08T10:34:23.067Z,17.53
2023-04-08T10:36:51.700Z,17.54
2023-04-08T10:39:21.721Z,17.59
2023-04-08T10:41:51.042Z,17.66
2023-04-08T10:44:20.569Z,17.75
2023-04-08T10:46:50.558Z,17.74
2023-04-08T10:49:19.236Z,17.73
2023-04-08T10:51:49.069Z,17.77
2023-04-08T10:54:18.459Z,17.85
2023-04-08T10:56:49.643Z,17.93
2023-04-08T10:59:32.261Z,17.94
2023-04-08T11:02:01.786Z,17.90
2023-04-08T11:04:31.117Z,17.88
2023-04-08T11:06:59.949Z,17.85
2023-04-08T11:09:28.512Z,17.82
2023-04-08T11:11:56.891Z,17.93
2023-04-08T11:14:28.352Z,18.15
2023-04-08T11:16:57.037Z,18.51
2023-04-08T11:19:25.424Z,18.83
2023-04-08T11:21:54.109Z,18.98
2023-04-08T11:24:22.800Z,18.90
2023-04-08T11:26:55.690Z,18.79
2023-04-08T11:29:24.190Z,18.67
2023-04-08T11:31:54.292Z,18.63
2023-04-08T11:34:24.535Z,18.61
2023-04-08T11:36:53.626Z,18.48
2023-04-08T11:39:25.066Z,18.26
2023-04-08T11:41:53.654Z,18.17
2023-04-08T11:44:31.244Z,18.25
2023-04-08T11:47:02.500Z,18.31
2023-04-08T11:49:44.818Z,18.23
2023-04-08T11:52:13.932Z,18.27
2023-04-08T11:54:42.915Z,18.44
2023-04-08T11:57:11.797Z,18.69
2023-04-08T11:59:40.690Z,18.92
2023-04-08T12:02:09.402Z,19.19
2023-04-08T12:04:38.218Z,19.50
2023-04-08T12:07:06.656Z,19.73
2023-04-08T12:12:14.170Z,19.50
2023-04-08T12:14:44.288Z,19.14
2023-04-08T12:17:13.122Z,18.82
2023-04-08T12:19:47.706Z,18.54
2023-04-08T12:22:17.112Z,18.33
2023-04-08T12:24:45.697Z,18.17
2023-04-08T12:27:14.181Z,18.00
2023-04-08T12:29:43.898Z,17.78
2023-04-08T12:32:12.694Z,17.48
2023-04-08T12:34:41.686Z,17.20
2023-04-08T12:37:10.892Z,16.98
2023-04-08T12:39:40.967Z,16.78
2023-04-08T12:42:09.502Z,16.64
2023-04-08T12:44:37.916Z,16.57
2023-04-08T12:47:06.583Z,16.47
2023-04-08T12:49:48.659Z,16.33
2023-04-08T12:52:22.505Z,16.22
2023-04-08T12:54:52.081Z,16.12
2023-04-08T12:57:20.464Z,16.03
2023-04-08T12:59:49.174Z,15.94
2023-04-08T13:02:17.982Z,15.82
2023-04-08T13:04:46.425Z,15.71
2023-04-08T13:07:15.113Z,15.60
2023-04-08T13:09:45.774Z,15.53
2023-04-08T13:12:19.053Z,15.49
2023-04-08T13:14:47.934Z,15.42
2023-04-08T13:17:16.726Z,15.35
2023-04-08T13:19:45.309Z,15.29
2023-04-08T13:22:14.508Z,15.23
2023-04-08T13:24:48.040Z,15.18
2023-04-08T13:27:16.392Z,15.14
2023-04-08T13:29:48.571Z,15.08
2023-04-08T13:32:17.192Z,15.03
2023-04-08T13:34:45.633Z,15.01
2023-04-08T13:37:14.222Z,14.97
2023-04-08T13:39:42.801Z,14.90
2023-04-08T13:42:11.179Z,14.78
2023-04-08T13:44:39.761Z,14.68
2023-04-08T13:47:08.250Z,14.59
2023-04-08T13:49:37.163Z,14.51
2023-04-08T13:52:05.618Z,14.42
2023-04-08T13:54:36.558Z,14.35
2023-04-08T13:57:05.676Z,14.30
2023-04-08T13:59:34.450Z,14.27
2023-04-08T14:02:04.113Z,14.22
2023-04-08T14:04:33.889Z,14.16
2023-04-08T14:07:02.867Z,14.11
2023-04-08T14:09:31.653Z,14.06
2023-04-08T14:12:00.034Z,14.02
2023-04-08T14:14:28.519Z,13.98
2023-04-08T14:17:01.049Z,13.95
2023-04-08T14:19:29.581Z,13.93
2023-04-08T14:22:03.606Z,13.87
2023-04-08T14:24:32.600Z,13.84
2023-04-08T14:27:01.083Z,13.79
2023-04-08T14:29:31.091Z,13.75
2023-04-08T14:31:59.781Z,13.72
2023-04-08T14:34:28.364Z,13.66
2023-04-08T14:36:56.953Z,13.60
2023-04-08T14:39:25.637Z,13.53
2023-04-08T14:41:57.609Z,13.45
2023-04-08T14:44:26.395Z,13.33
2023-04-08T14:46:57.469Z,13.21
2023-04-08T14:49:26.020Z,13.10
2023-04-08T14:51:54.409Z,13.02
2023-04-08T14:54:23.304Z,12.94
2023-04-08T14:56:51.987Z,12.85
2023-04-08T14:59:21.803Z,12.78
2023-04-08T15:01:50.332Z,12.70
2023-04-08T15:04:18.921Z,12.71
2023-04-08T15:06:47.462Z,12.74
2023-04-08T15:09:16.866Z,12.77
2023-04-08T15:11:45.171Z,12.78
2023-04-08T15:14:15.682Z,12.79
2023-04-08T15:16:44.166Z,12.78
2023-04-08T15:19:12.852Z,12.84
2023-04-08T15:21:42.166Z,12.88
2023-04-08T15:24:10.758Z,12.91
2023-04-08T15:26:40.349Z,12.91
2023-04-08T15:29:08.842Z,12.92
2023-04-08T15:31:37.436Z,12.94
2023-04-08T15:34:05.906Z,12.98
2023-04-08T15:36:37.742Z,12.97
2023-04-08T15:39:06.863Z,12.92
2023-04-08T15:41:36.583Z,12.90
2023-04-08T15:44:05.062Z,12.92
2023-04-08T15:46:34.971Z,12.91
2023-04-08T15:49:04.905Z,12.90
2023-04-08T15:51:34.426Z,12.96
2023-04-08T15:54:03.409Z,12.97
2023-04-08T15:56:31.893Z,13.05
2023-04-08T15:59:01.095Z,13.05
2023-04-08T16:01:29.842Z,12.96
2023-04-08T16:03:59.545Z,12.84
2023-04-08T16:06:28.090Z,12.76
2023-04-08T16:08:57.097Z,12.76
2023-04-08T16:11:27.911Z,12.85
2023-04-08T16:13:56.230Z,12.92
2023-04-08T16:16:25.022Z,12.97
2023-04-08T16:18:53.992Z,13.00
2023-04-08T16:21:22.582Z,12.98
2023-04-08T16:23:52.158Z,12.93
2023-04-08T16:26:22.302Z,12.91
2023-04-08T16:28:52.473Z,12.93
2023-04-08T16:31:21.143Z,12.96
2023-04-08T16:33:49.814Z,12.98
2023-04-08T16:36:19.405Z,13.00
2023-04-08T16:38:47.899Z,12.98
2023-04-08T16:41:16.177Z,12.96
2023-04-08T16:43:44.660Z,12.94
2023-04-08T16:46:15.535Z,12.86
2023-04-08T16:48:45.228Z,12.74
2023-04-08T16:51:13.697Z,12.65
2023-04-08T16:53:42.899Z,12.49
2023-04-08T16:56:15.062Z,12.37
2023-04-08T16:58:43.863Z,12.30
2023-04-08T17:01:16.500Z,12.26
2023-04-08T17:03:48.170Z,12.29
2023-04-08T17:06:18.128Z,12.35
2023-04-08T17:08:49.404Z,12.40
2023-04-08T17:11:18.392Z,12.37
2023-04-08T17:13:47.262Z,12.29
2023-04-08T17:16:17.842Z,12.24
2023-04-08T17:18:47.104Z,12.22
2023-04-08T17:21:15.886Z,12.27
2023-04-08T17:23:52.572Z,12.35
2023-04-08T17:26:26.580Z,12.39
2023-04-08T17:28:55.270Z,12.37
2023-04-08T17:31:24.104Z,12.29
2023-04-08T17:33:53.161Z,12.19
2023-04-08T17:36:21.565Z,12.15
2023-04-08T17:38:51.163Z,12.18
2023-04-08T17:41:38.314Z,12.23
2023-04-08T17:44:11.979Z,12.19
2023-04-08T17:46:41.706Z,12.17
2023-04-08T17:49:15.091Z,12.10
2023-04-08T17:51:44.194Z,12.02
2023-04-08T17:54:12.674Z,11.97
2023-04-08T17:56:46.663Z,11.98
2023-04-08T17:59:17.634Z,12.02
2023-04-08T18:01:48.271Z,12.05
2023-04-08T18:04:17.203Z,12.06
2023-04-08T18:06:45.846Z,12.05
2023-04-08T18:09:21.398Z,12.03
2023-04-08T18:11:52.031Z,12.05
2023-04-08T18:14:20.719Z,12.13
2023-04-08T18:16:53.892Z,12.21
2023-04-08T18:19:26.598Z,12.25
2023-04-08T18:21:55.798Z,12.29
2023-04-08T18:24:24.586Z,12.29
2023-04-08T18:27:03.466Z,12.24
2023-04-08T18:29:33.559Z,12.15
2023-04-08T18:32:02.344Z,11.98
2023-04-08T18:34:32.249Z,11.82
2023-04-08T18:37:04.317Z,11.75
2023-04-08T18:39:32.700Z,11.68
2023-04-08T18:42:01.802Z,11.63
2023-04-08T18:44:30.794Z,11.57
2023-04-08T18:46:59.495Z,11.51
2023-04-08T18:49:30.658Z,11.49
2023-04-08T18:52:03.189Z,11.51
2023-04-08T18:54:32.338Z,11.55
2023-04-08T18:57:03.146Z,11.60
2023-04-08T18:59:32.965Z,11.57
2023-04-08T19:02:01.807Z,11.70
2023-04-08T19:04:31.104Z,11.72
2023-04-08T19:07:00.672Z,11.69
2023-04-08T19:09:29.251Z,11.73
2023-04-08T19:11:57.842Z,11.80
2023-04-08T19:14:26.750Z,11.85
2023-04-08T19:16:57.067Z,11.91
2023-04-08T19:19:26.569Z,11.95
2023-04-08T19:21:55.464Z,11.98
2023-04-08T19:24:26.493Z,11.98
2023-04-08T19:26:54.850Z,12.04
2023-04-08T19:29:24.805Z,12.11
2023-04-08T19:31:54.008Z,12.08
2023-04-08T19:34:22.503Z,11.93
2023-04-08T19:36:51.181Z,11.76
2023-04-08T19:39:20.077Z,11.60
2023-04-08T19:41:48.415Z,11.49
2023-04-08T19:44:16.840Z,11.42
2023-04-08T19:46:45.675Z,11.41
2023-04-08T19:49:14.111Z,11.50
2023-04-08T19:51:42.599Z,11.56
2023-04-08T19:54:14.467Z,11.58
2023-04-08T19:56:44.168Z,11.58
2023-04-08T19:59:12.563Z,11.56
2023-04-08T20:01:43.248Z,11.53
2023-04-08T20:04:12.165Z,11.49
2023-04-08T20:06:40.768Z,11.52
2023-04-08T20:09:10.180Z,11.54
2023-04-08T20:11:38.664Z,11.50
2023-04-08T20:14:10.216Z,11.49
2023-04-08T20:16:38.603Z,11.48
2023-04-08T20:19:14.253Z,11.48
2023-04-08T20:21:43.558Z,11.45
2023-04-08T20:24:13.070Z,11.41
2023-04-08T20:26:41.457Z,11.38
2023-04-08T20:29:10.160Z,11.43
2023-04-08T20:31:38.591Z,11.48
2023-04-08T20:34:10.846Z,11.47
2023-04-08T20:36:40.196Z,11.44
2023-04-08T20:39:12.365Z,11.40
2023-04-08T20:41:41.568Z,11.31
2023-04-08T20:44:10.888Z,11.22
2023-04-08T20:46:47.897Z,11.16
2023-04-08T20:49:18.906Z,11.19
2023-04-08T20:51:47.385Z,11.17
2023-04-08T20:54:16.182Z,11.12
2023-04-08T20:56:44.760Z,11.07
2023-04-08T20:59:17.448Z,11.02
2023-04-08T21:01:48.413Z,10.98
2023-04-08T21:04:16.975Z,10.73
2023-04-08T21:06:45.456Z,11.00
2023-04-08T21:09:15.397Z,11.00
2023-04-08T21:11:43.858Z,10.94
2023-04-08T21:14:16.131Z,10.90
2023-04-08T21:16:46.794Z,10.89
2023-04-08T21:19:15.044Z,10.88
2023-04-08T21:21:50.081Z,10.84
2023-04-08T21:24:18.362Z,10.84
2023-04-08T21:26:47.149Z,10.88
2023-04-08T21:29:15.749Z,10.86
2023-04-08T21:31:44.069Z,10.83
2023-04-08T21:34:14.036Z,10.80
2023-04-08T21:36:42.318Z,10.76
2023-04-08T21:39:10.595Z,10.72
2023-04-08T21:41:39.892Z,10.65
2023-04-08T21:44:09.466Z,10.62
2023-04-08T21:46:38.294Z,10.66
2023-04-08T21:49:07.286Z,10.69
2023-04-08T21:51:36.182Z,10.66
2023-04-08T21:54:05.196Z,10.64
2023-04-08T21:56:34.993Z,10.55
2023-04-08T21:59:04.400Z,10.47
2023-04-08T22:01:33.018Z,10.31
2023-04-08T22:04:04.460Z,10.19
2023-04-08T22:06:33.155Z,10.21
2023-04-08T22:09:02.947Z,10.26
2023-04-08T22:11:31.936Z,10.25
2023-04-08T22:14:00.316Z,10.21
2023-04-08T22:16:29.842Z,10.18
2023-04-08T22:18:58.618Z,10.15
2023-04-08T22:21:30.392Z,10.08
2023-04-08T22:23:59.080Z,10.03
2023-04-08T22:26:27.856Z,10.09
2023-04-08T22:28:57.673Z,10.14
2023-04-08T22:31:26.668Z,10.12
2023-04-08T22:33:56.381Z,10.09
2023-04-08T22:36:25.070Z,10.07
2023-04-08T22:38:54.033Z,10.08
2023-04-08T22:41:22.761Z,10.14
2023-04-08T22:43:52.782Z,10.24
2023-04-08T22:46:21.617Z,10.29
2023-04-08T22:48:50.782Z,10.33
2023-04-08T22:51:19.453Z,10.35
2023-04-08T22:53:47.730Z,10.37
2023-04-08T22:56:16.111Z,10.38
2023-04-08T22:58:44.388Z,10.35
2023-04-08T23:01:14.044Z,10.26
2023-04-08T23:03:44.254Z,10.16
2023-04-08T23:06:12.447Z,10.15
2023-04-08T23:08:43.452Z,10.14
2023-04-08T23:11:11.924Z,10.11
2023-04-08T23:13:45.636Z,10.09
2023-04-08T23:16:14.517Z,10.06
2023-04-08T23:18:43.345Z,10.00
2023-04-08T23:21:20.618Z,9.96
2023-04-08T23:23:49.499Z,9.93
2023-04-08T23:26:18.703Z,9.94
2023-04-08T23:28:52.567Z,10.01
2023-04-08T23:31:21.257Z,10.04
2023-04-08T23:33:51.003Z,9.96
2023-04-08T23:36:20.412Z,9.99
2023-04-08T23:38:49.907Z,9.95
2023-04-08T23:41:18.370Z,9.96
2023-04-08T23:43:55.197Z,10.06
2023-04-08T23:46:23.594Z,10.15
2023-04-08T23:48:57.892Z,10.19
2023-04-08T23:51:28.208Z,10.21
2023-04-08T23:53:56.719Z,10.22
2023-04-08T23:56:25.275Z,10.20
2023-04-08T23:58:53.952Z,10.19
